sensor_id;sensor_type;location;lat;lon;timestamp;P1;durP1;ratioP1;P2;durP2;ratioP2
8893;SDS011;4483;48.622;9.230;2023-02-01T00:00:29;2.53;;;2.13;;
8893;SDS011;4483;48.622;9.230;2023-02-01T00:02:55;2.00;;;1.90;;
8893;SDS011;4483;48.622;9.230;2023-02-01T00:05:22;3.40;;;2.27;;
8893;SDS011;4483;48.622;9.230;2023-02-01T00:07:48;2.53;;;2.00;;
8893;SDS011;4483;48.622;9.230;2023-02-01T00:10:15;3.57;;;2.13;;
8893;SDS011;4483;48.622;9.230;2023-02-01T00:12:42;2.30;;;2.10;;
8893;SDS011;4483;48.622;9.230;2023-02-01T00:15:11;2.00;;;1.87;;
8893;SDS011;4483;48.622;9.230;2023-02-01T00:17:38;2.17;;;1.97;;
8893;SDS011;4483;48.622;9.230;2023-02-01T00:20:05;2.73;;;2.50;;
8893;SDS011;4483;48.622;9.230;2023-02-01T00:22:32;2.60;;;2.00;;
8893;SDS011;4483;48.622;9.230;2023-02-01T00:24:59;3.50;;;2.40;;
8893;SDS011;4483;48.622;9.230;2023-02-01T00:27:26;1.70;;;1.60;;
8893;SDS011;4483;48.622;9.230;2023-02-01T00:29:53;1.70;;;1.60;;
8893;SDS011;4483;48.622;9.230;2023-02-01T00:32:21;2.47;;;1.80;;
8893;SDS011;4483;48.622;9.230;2023-02-01T00:34:48;2.33;;;2.13;;
8893;SDS011;4483;48.622;9.230;2023-02-01T00:37:15;2.20;;;2.00;;
8893;SDS011;4483;48.622;9.230;2023-02-01T00:39:41;2.20;;;1.73;;
8893;SDS011;4483;48.622;9.230;2023-02-01T00:42:08;1.90;;;1.80;;
8893;SDS011;4483;48.622;9.230;2023-02-01T00:44:35;4.10;;;2.20;;
8893;SDS011;4483;48.622;9.230;2023-02-01T00:47:01;2.07;;;1.83;;
8893;SDS011;4483;48.622;9.230;2023-02-01T00:49:29;3.27;;;1.90;;
8893;SDS011;4483;48.622;9.230;2023-02-01T00:51:56;1.90;;;1.80;;
8893;SDS011;4483;48.622;9.230;2023-02-01T00:54:22;2.13;;;1.93;;
8893;SDS011;4483;48.622;9.230;2023-02-01T00:56:49;1.90;;;1.80;;
8893;SDS011;4483;48.622;9.230;2023-02-01T00:59:15;2.07;;;1.97;;
8893;SDS011;4483;48.622;9.230;2023-02-01T01:01:42;2.27;;;2.10;;
8893;SDS011;4483;48.622;9.230;2023-02-01T01:04:09;1.80;;;1.70;;
8893;SDS011;4483;48.622;9.230;2023-02-01T01:06:37;1.80;;;1.70;;
8893;SDS011;4483;48.622;9.230;2023-02-01T01:09:05;2.13;;;2.00;;
8893;SDS011;4483;48.622;9.230;2023-02-01T01:11:34;2.13;;;1.93;;
8893;SDS011;4483;48.622;9.230;2023-02-01T01:14:02;2.83;;;1.97;;
8893;SDS011;4483;48.622;9.230;2023-02-01T01:16:30;1.87;;;1.77;;
8893;SDS011;4483;48.622;9.230;2023-02-01T01:18:58;1.83;;;1.73;;
8893;SDS011;4483;48.622;9.230;2023-02-01T01:21:26;2.47;;;1.53;;
8893;SDS011;4483;48.622;9.230;2023-02-01T01:23:54;1.87;;;1.77;;
8893;SDS011;4483;48.622;9.230;2023-02-01T01:26:21;1.70;;;1.60;;
8893;SDS011;4483;48.622;9.230;2023-02-01T01:28:50;1.97;;;1.80;;
8893;SDS011;4483;48.622;9.230;2023-02-01T01:31:18;1.63;;;1.53;;
8893;SDS011;4483;48.622;9.230;2023-02-01T01:33:49;1.50;;;1.40;;
8893;SDS011;4483;48.622;9.230;2023-02-01T01:36:17;1.50;;;1.50;;
8893;SDS011;4483;48.622;9.230;2023-02-01T01:38:44;1.57;;;1.57;;
8893;SDS011;4483;48.622;9.230;2023-02-01T01:41:14;2.73;;;1.77;;
8893;SDS011;4483;48.622;9.230;2023-02-01T01:43:52;1.67;;;1.57;;
8893;SDS011;4483;48.622;9.230;2023-02-01T01:46:21;1.40;;;1.40;;
8893;SDS011;4483;48.622;9.230;2023-02-01T01:48:49;1.57;;;1.53;;
8893;SDS011;4483;48.622;9.230;2023-02-01T01:51:19;2.03;;;1.30;;
8893;SDS011;4483;48.622;9.230;2023-02-01T01:53:50;2.00;;;1.63;;
8893;SDS011;4483;48.622;9.230;2023-02-01T01:56:25;1.53;;;1.43;;
8893;SDS011;4483;48.622;9.230;2023-02-01T01:58:52;1.40;;;1.30;;
8893;SDS011;4483;48.622;9.230;2023-02-01T02:01:20;2.83;;;1.37;;
8893;SDS011;4483;48.622;9.230;2023-02-01T02:03:46;1.70;;;1.60;;
8893;SDS011;4483;48.622;9.230;2023-02-01T02:06:15;1.60;;;1.50;;
8893;SDS011;4483;48.622;9.230;2023-02-01T02:08:46;1.50;;;1.40;;
8893;SDS011;4483;48.622;9.230;2023-02-01T02:11:13;1.20;;;1.20;;
8893;SDS011;4483;48.622;9.230;2023-02-01T02:13:45;1.67;;;1.57;;
8893;SDS011;4483;48.622;9.230;2023-02-01T02:16:18;1.30;;;1.30;;
8893;SDS011;4483;48.622;9.230;2023-02-01T02:18:56;1.20;;;1.20;;
8893;SDS011;4483;48.622;9.230;2023-02-01T02:21:42;2.13;;;1.60;;
8893;SDS011;4483;48.622;9.230;2023-02-01T02:24:33;1.30;;;1.20;;
8893;SDS011;4483;48.622;9.230;2023-02-01T02:27:18;1.10;;;1.10;;
8893;SDS011;4483;48.622;9.230;2023-02-01T02:30:00;2.53;;;1.40;;
8893;SDS011;4483;48.622;9.230;2023-02-01T02:32:55;1.20;;;1.20;;
8893;SDS011;4483;48.622;9.230;2023-02-01T02:35:48;1.20;;;1.20;;
8893;SDS011;4483;48.622;9.230;2023-02-01T02:38:25;4.00;;;1.50;;
8893;SDS011;4483;48.622;9.230;2023-02-01T02:41:01;1.50;;;1.40;;
8893;SDS011;4483;48.622;9.230;2023-02-01T02:43:35;1.70;;;1.60;;
8893;SDS011;4483;48.622;9.230;2023-02-01T02:46:31;1.37;;;1.37;;
8893;SDS011;4483;48.622;9.230;2023-02-01T02:49:23;2.57;;;1.37;;
8893;SDS011;4483;48.622;9.230;2023-02-01T02:51:55;1.30;;;1.20;;
8893;SDS011;4483;48.622;9.230;2023-02-01T02:54:45;1.80;;;1.70;;
8893;SDS011;4483;48.622;9.230;2023-02-01T02:57:16;1.70;;;1.60;;
8893;SDS011;4483;48.622;9.230;2023-02-01T03:00:04;1.40;;;1.30;;
8893;SDS011;4483;48.622;9.230;2023-02-01T03:02:52;1.37;;;1.30;;
8893;SDS011;4483;48.622;9.230;2023-02-01T03:05:39;1.43;;;1.43;;
8893;SDS011;4483;48.622;9.230;2023-02-01T03:08:10;2.33;;;1.57;;
8893;SDS011;4483;48.622;9.230;2023-02-01T03:10:40;1.60;;;1.50;;
8893;SDS011;4483;48.622;9.230;2023-02-01T03:13:13;1.60;;;1.50;;
8893;SDS011;4483;48.622;9.230;2023-02-01T03:15:47;1.50;;;1.40;;
8893;SDS011;4483;48.622;9.230;2023-02-01T03:18:18;1.60;;;1.50;;
8893;SDS011;4483;48.622;9.230;2023-02-01T03:20:49;1.80;;;1.50;;
8893;SDS011;4483;48.622;9.230;2023-02-01T03:23:20;1.47;;;1.37;;
8893;SDS011;4483;48.622;9.230;2023-02-01T03:25:49;1.60;;;1.50;;
8893;SDS011;4483;48.622;9.230;2023-02-01T03:28:19;1.90;;;1.80;;
8893;SDS011;4483;48.622;9.230;2023-02-01T03:30:49;1.80;;;1.70;;
8893;SDS011;4483;48.622;9.230;2023-02-01T03:33:17;1.53;;;1.43;;
8893;SDS011;4483;48.622;9.230;2023-02-01T03:35:50;3.20;;;1.50;;
8893;SDS011;4483;48.622;9.230;2023-02-01T03:38:24;1.63;;;1.50;;
8893;SDS011;4483;48.622;9.230;2023-02-01T03:40:57;1.87;;;1.60;;
8893;SDS011;4483;48.622;9.230;2023-02-01T03:43:29;1.77;;;1.70;;
8893;SDS011;4483;48.622;9.230;2023-02-01T03:46:02;1.90;;;1.80;;
8893;SDS011;4483;48.622;9.230;2023-02-01T03:48:35;2.50;;;1.83;;
8893;SDS011;4483;48.622;9.230;2023-02-01T03:51:04;1.60;;;1.53;;
8893;SDS011;4483;48.622;9.230;2023-02-01T03:53:33;1.73;;;1.63;;
8893;SDS011;4483;48.622;9.230;2023-02-01T03:56:02;3.03;;;1.70;;
8893;SDS011;4483;48.622;9.230;2023-02-01T03:58:29;2.67;;;1.50;;
8893;SDS011;4483;48.622;9.230;2023-02-01T04:00:57;1.90;;;1.80;;
8893;SDS011;4483;48.622;9.230;2023-02-01T04:03:25;2.50;;;1.53;;
8893;SDS011;4483;48.622;9.230;2023-02-01T04:05:53;2.33;;;1.50;;
8893;SDS011;4483;48.622;9.230;2023-02-01T04:08:22;1.63;;;1.50;;
8893;SDS011;4483;48.622;9.230;2023-02-01T04:10:49;1.63;;;1.53;;
8893;SDS011;4483;48.622;9.230;2023-02-01T04:13:16;2.90;;;1.70;;
8893;SDS011;4483;48.622;9.230;2023-02-01T04:15:42;1.70;;;1.60;;
8893;SDS011;4483;48.622;9.230;2023-02-01T04:18:10;1.50;;;1.40;;
8893;SDS011;4483;48.622;9.230;2023-02-01T04:20:37;1.83;;;1.73;;
8893;SDS011;4483;48.622;9.230;2023-02-01T04:23:03;1.27;;;1.20;;
8893;SDS011;4483;48.622;9.230;2023-02-01T04:25:31;1.70;;;1.60;;
8893;SDS011;4483;48.622;9.230;2023-02-01T04:27:58;1.23;;;1.23;;
8893;SDS011;4483;48.622;9.230;2023-02-01T04:30:25;2.97;;;1.60;;
8893;SDS011;4483;48.622;9.230;2023-02-01T04:32:52;2.37;;;1.60;;
8893;SDS011;4483;48.622;9.230;2023-02-01T04:35:18;1.80;;;1.70;;
8893;SDS011;4483;48.622;9.230;2023-02-01T04:37:45;1.70;;;1.60;;
8893;SDS011;4483;48.622;9.230;2023-02-01T04:40:11;1.60;;;1.40;;
8893;SDS011;4483;48.622;9.230;2023-02-01T04:42:40;2.30;;;1.37;;
8893;SDS011;4483;48.622;9.230;2023-02-01T04:45:06;1.47;;;1.40;;
8893;SDS011;4483;48.622;9.230;2023-02-01T04:47:34;1.60;;;1.50;;
8893;SDS011;4483;48.622;9.230;2023-02-01T04:50:00;2.00;;;1.60;;
8893;SDS011;4483;48.622;9.230;2023-02-01T04:52:27;1.83;;;1.70;;
8893;SDS011;4483;48.622;9.230;2023-02-01T04:54:54;4.43;;;1.70;;
8893;SDS011;4483;48.622;9.230;2023-02-01T04:57:22;2.87;;;1.60;;
8893;SDS011;4483;48.622;9.230;2023-02-01T04:59:50;2.27;;;1.53;;
8893;SDS011;4483;48.622;9.230;2023-02-01T05:02:17;2.40;;;1.60;;
8893;SDS011;4483;48.622;9.230;2023-02-01T05:04:43;1.90;;;1.40;;
8893;SDS011;4483;48.622;9.230;2023-02-01T05:07:10;1.40;;;1.30;;
8893;SDS011;4483;48.622;9.230;2023-02-01T05:09:36;1.30;;;1.30;;
8893;SDS011;4483;48.622;9.230;2023-02-01T05:12:03;1.40;;;1.30;;
8893;SDS011;4483;48.622;9.230;2023-02-01T05:14:55;1.73;;;1.63;;
8893;SDS011;4483;48.622;9.230;2023-02-01T05:17:21;1.60;;;1.50;;
8893;SDS011;4483;48.622;9.230;2023-02-01T05:19:48;1.87;;;1.50;;
8893;SDS011;4483;48.622;9.230;2023-02-01T05:22:14;1.50;;;1.40;;
8893;SDS011;4483;48.622;9.230;2023-02-01T05:24:41;1.87;;;1.77;;
8893;SDS011;4483;48.622;9.230;2023-02-01T05:27:08;2.03;;;1.93;;
8893;SDS011;4483;48.622;9.230;2023-02-01T05:29:34;1.60;;;1.50;;
8893;SDS011;4483;48.622;9.230;2023-02-01T05:32:02;1.70;;;1.53;;
8893;SDS011;4483;48.622;9.230;2023-02-01T05:34:29;2.90;;;1.60;;
8893;SDS011;4483;48.622;9.230;2023-02-01T05:36:56;1.47;;;1.40;;
8893;SDS011;4483;48.622;9.230;2023-02-01T05:39:22;1.70;;;1.47;;
8893;SDS011;4483;48.622;9.230;2023-02-01T05:41:49;1.50;;;1.40;;
8893;SDS011;4483;48.622;9.230;2023-02-01T05:44:15;1.50;;;1.40;;
8893;SDS011;4483;48.622;9.230;2023-02-01T05:46:42;1.70;;;1.60;;
8893;SDS011;4483;48.622;9.230;2023-02-01T05:49:10;1.40;;;1.30;;
8893;SDS011;4483;48.622;9.230;2023-02-01T05:51:37;1.40;;;1.40;;
8893;SDS011;4483;48.622;9.230;2023-02-01T05:54:03;1.60;;;1.50;;
8893;SDS011;4483;48.622;9.230;2023-02-01T05:56:30;1.60;;;1.50;;
8893;SDS011;4483;48.622;9.230;2023-02-01T05:58:56;1.57;;;1.47;;
8893;SDS011;4483;48.622;9.230;2023-02-01T06:01:23;1.97;;;1.60;;
8893;SDS011;4483;48.622;9.230;2023-02-01T06:03:50;1.20;;;1.20;;
8893;SDS011;4483;48.622;9.230;2023-02-01T06:06:18;1.20;;;1.20;;
8893;SDS011;4483;48.622;9.230;2023-02-01T06:08:44;2.93;;;1.60;;
8893;SDS011;4483;48.622;9.230;2023-02-01T06:11:11;1.33;;;1.30;;
8893;SDS011;4483;48.622;9.230;2023-02-01T06:13:39;2.57;;;1.30;;
8893;SDS011;4483;48.622;9.230;2023-02-01T06:16:05;1.30;;;1.27;;
8893;SDS011;4483;48.622;9.230;2023-02-01T06:18:32;1.43;;;1.43;;
8893;SDS011;4483;48.622;9.230;2023-02-01T06:20:59;1.30;;;1.20;;
8893;SDS011;4483;48.622;9.230;2023-02-01T06:23:27;1.50;;;1.40;;
8893;SDS011;4483;48.622;9.230;2023-02-01T06:25:58;2.43;;;1.10;;
8893;SDS011;4483;48.622;9.230;2023-02-01T06:28:25;3.00;;;1.50;;
8893;SDS011;4483;48.622;9.230;2023-02-01T06:30:52;3.23;;;1.87;;
8893;SDS011;4483;48.622;9.230;2023-02-01T06:33:18;3.00;;;1.47;;
8893;SDS011;4483;48.622;9.230;2023-02-01T06:35:45;1.73;;;1.53;;
8893;SDS011;4483;48.622;9.230;2023-02-01T06:38:12;6.20;;;1.50;;
8893;SDS011;4483;48.622;9.230;2023-02-01T06:40:40;1.80;;;1.53;;
8893;SDS011;4483;48.622;9.230;2023-02-01T06:43:07;2.17;;;1.50;;
8893;SDS011;4483;48.622;9.230;2023-02-01T06:45:34;4.87;;;1.67;;
8893;SDS011;4483;48.622;9.230;2023-02-01T06:48:00;3.40;;;1.30;;
8893;SDS011;4483;48.622;9.230;2023-02-01T06:50:27;1.73;;;1.63;;
8893;SDS011;4483;48.622;9.230;2023-02-01T06:52:54;2.87;;;1.43;;
8893;SDS011;4483;48.622;9.230;2023-02-01T06:55:21;5.70;;;1.83;;
8893;SDS011;4483;48.622;9.230;2023-02-01T06:57:49;1.70;;;1.20;;
8893;SDS011;4483;48.622;9.230;2023-02-01T07:00:19;2.70;;;1.63;;
8893;SDS011;4483;48.622;9.230;2023-02-01T07:02:46;3.60;;;1.37;;
8893;SDS011;4483;48.622;9.230;2023-02-01T07:05:13;1.50;;;1.40;;
8893;SDS011;4483;48.622;9.230;2023-02-01T07:07:40;1.57;;;1.47;;
8893;SDS011;4483;48.622;9.230;2023-02-01T07:10:07;3.40;;;1.80;;
8893;SDS011;4483;48.622;9.230;2023-02-01T07:12:34;1.50;;;1.40;;
8893;SDS011;4483;48.622;9.230;2023-02-01T07:15:02;2.07;;;1.57;;
8893;SDS011;4483;48.622;9.230;2023-02-01T07:17:30;1.93;;;1.30;;
8893;SDS011;4483;48.622;9.230;2023-02-01T07:19:56;1.43;;;1.30;;
8893;SDS011;4483;48.622;9.230;2023-02-01T07:22:24;2.17;;;1.50;;
8893;SDS011;4483;48.622;9.230;2023-02-01T07:24:51;1.27;;;1.17;;
8893;SDS011;4483;48.622;9.230;2023-02-01T07:27:18;3.30;;;1.77;;
8893;SDS011;4483;48.622;9.230;2023-02-01T07:29:45;2.37;;;1.30;;
8893;SDS011;4483;48.622;9.230;2023-02-01T07:32:13;3.33;;;1.60;;
8893;SDS011;4483;48.622;9.230;2023-02-01T07:34:43;1.63;;;1.50;;
8893;SDS011;4483;48.622;9.230;2023-02-01T07:37:09;2.07;;;1.30;;
8893;SDS011;4483;48.622;9.230;2023-02-01T07:39:36;1.60;;;1.50;;
8893;SDS011;4483;48.622;9.230;2023-02-01T07:42:02;1.47;;;1.37;;
8893;SDS011;4483;48.622;9.230;2023-02-01T07:44:29;7.50;;;2.20;;
8893;SDS011;4483;48.622;9.230;2023-02-01T07:46:56;2.37;;;1.50;;
8893;SDS011;4483;48.622;9.230;2023-02-01T07:49:24;1.47;;;1.37;;
8893;SDS011;4483;48.622;9.230;2023-02-01T07:51:50;3.50;;;1.53;;
8893;SDS011;4483;48.622;9.230;2023-02-01T07:54:17;1.87;;;1.37;;
8893;SDS011;4483;48.622;9.230;2023-02-01T07:56:44;4.17;;;1.37;;
8893;SDS011;4483;48.622;9.230;2023-02-01T07:59:10;1.63;;;1.37;;
8893;SDS011;4483;48.622;9.230;2023-02-01T08:01:37;2.07;;;1.57;;
8893;SDS011;4483;48.622;9.230;2023-02-01T08:04:03;5.30;;;2.37;;
8893;SDS011;4483;48.622;9.230;2023-02-01T08:06:32;1.80;;;1.40;;
8893;SDS011;4483;48.622;9.230;2023-02-01T08:09:00;1.57;;;1.47;;
8893;SDS011;4483;48.622;9.230;2023-02-01T08:11:27;2.90;;;1.50;;
8893;SDS011;4483;48.622;9.230;2023-02-01T08:13:53;1.57;;;1.40;;
8893;SDS011;4483;48.622;9.230;2023-02-01T08:16:21;2.00;;;1.50;;
8893;SDS011;4483;48.622;9.230;2023-02-01T08:18:48;1.47;;;1.30;;
8893;SDS011;4483;48.622;9.230;2023-02-01T08:21:15;1.40;;;1.30;;
8893;SDS011;4483;48.622;9.230;2023-02-01T08:23:45;1.40;;;1.30;;
8893;SDS011;4483;48.622;9.230;2023-02-01T08:26:14;1.40;;;1.40;;
8893;SDS011;4483;48.622;9.230;2023-02-01T08:28:43;1.20;;;1.20;;
8893;SDS011;4483;48.622;9.230;2023-02-01T08:31:11;1.30;;;1.20;;
8893;SDS011;4483;48.622;9.230;2023-02-01T08:33:40;3.50;;;1.40;;
8893;SDS011;4483;48.622;9.230;2023-02-01T08:36:08;1.33;;;1.23;;
8893;SDS011;4483;48.622;9.230;2023-02-01T08:38:36;1.70;;;1.40;;
8893;SDS011;4483;48.622;9.230;2023-02-01T08:41:06;1.60;;;1.50;;
8893;SDS011;4483;48.622;9.230;2023-02-01T08:43:33;1.70;;;1.47;;
8893;SDS011;4483;48.622;9.230;2023-02-01T08:46:00;3.00;;;1.60;;
8893;SDS011;4483;48.622;9.230;2023-02-01T08:48:26;1.80;;;1.53;;
8893;SDS011;4483;48.622;9.230;2023-02-01T08:50:53;2.67;;;1.40;;
8893;SDS011;4483;48.622;9.230;2023-02-01T08:53:20;1.60;;;1.50;;
8893;SDS011;4483;48.622;9.230;2023-02-01T08:55:46;1.77;;;1.67;;
8893;SDS011;4483;48.622;9.230;2023-02-01T08:58:14;1.40;;;1.30;;
8893;SDS011;4483;48.622;9.230;2023-02-01T09:00:42;1.57;;;1.47;;
8893;SDS011;4483;48.622;9.230;2023-02-01T09:03:09;1.83;;;1.53;;
8893;SDS011;4483;48.622;9.230;2023-02-01T09:05:37;2.93;;;1.40;;
8893;SDS011;4483;48.622;9.230;2023-02-01T09:08:03;1.70;;;1.30;;
8893;SDS011;4483;48.622;9.230;2023-02-01T09:10:30;1.07;;;1.07;;
8893;SDS011;4483;48.622;9.230;2023-02-01T09:12:58;1.37;;;1.27;;
8893;SDS011;4483;48.622;9.230;2023-02-01T09:15:26;3.90;;;1.43;;
8893;SDS011;4483;48.622;9.230;2023-02-01T09:17:52;1.97;;;1.40;;
8893;SDS011;4483;48.622;9.230;2023-02-01T09:20:19;1.73;;;1.40;;
8893;SDS011;4483;48.622;9.230;2023-02-01T09:22:49;1.13;;;1.10;;
8893;SDS011;4483;48.622;9.230;2023-02-01T09:25:16;1.33;;;1.10;;
8893;SDS011;4483;48.622;9.230;2023-02-01T09:27:42;3.33;;;1.50;;
8893;SDS011;4483;48.622;9.230;2023-02-01T09:30:09;1.73;;;1.50;;
8893;SDS011;4483;48.622;9.230;2023-02-01T09:32:38;1.87;;;1.53;;
8893;SDS011;4483;48.622;9.230;2023-02-01T09:35:05;3.90;;;1.50;;
8893;SDS011;4483;48.622;9.230;2023-02-01T09:37:32;1.40;;;1.30;;
8893;SDS011;4483;48.622;9.230;2023-02-01T09:39:59;1.40;;;1.30;;
8893;SDS011;4483;48.622;9.230;2023-02-01T09:42:31;3.17;;;1.53;;
8893;SDS011;4483;48.622;9.230;2023-02-01T09:45:14;2.23;;;1.80;;
8893;SDS011;4483;48.622;9.230;2023-02-01T09:47:50;3.60;;;1.50;;
8893;SDS011;4483;48.622;9.230;2023-02-01T09:50:21;2.50;;;2.07;;
8893;SDS011;4483;48.622;9.230;2023-02-01T09:52:55;3.13;;;1.27;;
8893;SDS011;4483;48.622;9.230;2023-02-01T09:55:30;1.53;;;1.43;;
8893;SDS011;4483;48.622;9.230;2023-02-01T09:58:02;3.30;;;1.70;;
8893;SDS011;4483;48.622;9.230;2023-02-01T10:00:33;1.50;;;1.40;;
8893;SDS011;4483;48.622;9.230;2023-02-01T10:03:03;3.87;;;1.50;;
8893;SDS011;4483;48.622;9.230;2023-02-01T10:08:30;1.77;;;1.50;;
8893;SDS011;4483;48.622;9.230;2023-02-01T10:11:08;2.83;;;1.57;;
8893;SDS011;4483;48.622;9.230;2023-02-01T10:13:51;3.27;;;1.50;;
8893;SDS011;4483;48.622;9.230;2023-02-01T10:16:27;1.70;;;1.40;;
8893;SDS011;4483;48.622;9.230;2023-02-01T10:22:06;4.33;;;1.80;;
8893;SDS011;4483;48.622;9.230;2023-02-01T10:24:39;3.67;;;1.70;;
8893;SDS011;4483;48.622;9.230;2023-02-01T10:27:12;1.73;;;1.50;;
8893;SDS011;4483;48.622;9.230;2023-02-01T10:29:45;4.37;;;1.60;;
8893;SDS011;4483;48.622;9.230;2023-02-01T10:32:16;2.50;;;1.40;;
8893;SDS011;4483;48.622;9.230;2023-02-01T10:34:48;4.07;;;1.60;;
8893;SDS011;4483;48.622;9.230;2023-02-01T10:37:27;4.10;;;1.50;;
8893;SDS011;4483;48.622;9.230;2023-02-01T10:39:55;5.97;;;1.80;;
8893;SDS011;4483;48.622;9.230;2023-02-01T10:42:25;2.50;;;1.70;;
8893;SDS011;4483;48.622;9.230;2023-02-01T10:44:53;3.53;;;1.50;;
8893;SDS011;4483;48.622;9.230;2023-02-01T10:47:22;3.47;;;1.93;;
8893;SDS011;4483;48.622;9.230;2023-02-01T10:49:52;3.07;;;1.80;;
8893;SDS011;4483;48.622;9.230;2023-02-01T10:52:27;4.07;;;1.80;;
8893;SDS011;4483;48.622;9.230;2023-02-01T10:58:03;5.10;;;1.50;;
8893;SDS011;4483;48.622;9.230;2023-02-01T11:00:37;5.53;;;1.70;;
8893;SDS011;4483;48.622;9.230;2023-02-01T11:03:21;4.70;;;1.87;;
8893;SDS011;4483;48.622;9.230;2023-02-01T11:06:08;7.40;;;1.70;;
8893;SDS011;4483;48.622;9.230;2023-02-01T11:08:42;3.90;;;1.83;;
8893;SDS011;4483;48.622;9.230;2023-02-01T11:11:12;8.07;;;2.10;;
8893;SDS011;4483;48.622;9.230;2023-02-01T11:13:39;7.80;;;1.93;;
8893;SDS011;4483;48.622;9.230;2023-02-01T11:16:08;3.20;;;1.50;;
8893;SDS011;4483;48.622;9.230;2023-02-01T11:18:38;6.87;;;1.60;;
8893;SDS011;4483;48.622;9.230;2023-02-01T11:21:09;5.63;;;1.63;;
8893;SDS011;4483;48.622;9.230;2023-02-01T11:23:39;4.13;;;1.80;;
8893;SDS011;4483;48.622;9.230;2023-02-01T11:26:10;1.87;;;1.27;;
8893;SDS011;4483;48.622;9.230;2023-02-01T11:28:39;3.67;;;1.53;;
8893;SDS011;4483;48.622;9.230;2023-02-01T11:31:13;4.97;;;1.80;;
8893;SDS011;4483;48.622;9.230;2023-02-01T11:33:42;4.30;;;1.70;;
8893;SDS011;4483;48.622;9.230;2023-02-01T11:36:16;5.90;;;1.83;;
8893;SDS011;4483;48.622;9.230;2023-02-01T11:38:45;6.87;;;1.90;;
8893;SDS011;4483;48.622;9.230;2023-02-01T11:41:21;2.93;;;1.57;;
8893;SDS011;4483;48.622;9.230;2023-02-01T11:43:50;5.10;;;1.80;;
8893;SDS011;4483;48.622;9.230;2023-02-01T11:46:19;5.70;;;2.00;;
8893;SDS011;4483;48.622;9.230;2023-02-01T11:48:50;9.47;;;2.03;;
8893;SDS011;4483;48.622;9.230;2023-02-01T11:51:21;8.23;;;2.23;;
8893;SDS011;4483;48.622;9.230;2023-02-01T11:57:03;6.63;;;1.80;;
8893;SDS011;4483;48.622;9.230;2023-02-01T11:59:45;4.30;;;1.90;;
8893;SDS011;4483;48.622;9.230;2023-02-01T12:02:33;5.47;;;1.80;;
8893;SDS011;4483;48.622;9.230;2023-02-01T12:05:32;4.40;;;1.90;;
8893;SDS011;4483;48.622;9.230;2023-02-01T12:08:28;2.87;;;1.43;;
8893;SDS011;4483;48.622;9.230;2023-02-01T12:11:16;4.30;;;2.00;;
8893;SDS011;4483;48.622;9.230;2023-02-01T12:13:54;4.63;;;1.47;;
8893;SDS011;4483;48.622;9.230;2023-02-01T12:16:29;6.13;;;2.27;;
8893;SDS011;4483;48.622;9.230;2023-02-01T12:19:10;5.33;;;1.57;;
8893;SDS011;4483;48.622;9.230;2023-02-01T12:21:51;5.50;;;1.70;;
8893;SDS011;4483;48.622;9.230;2023-02-01T12:24:36;6.07;;;1.80;;
8893;SDS011;4483;48.622;9.230;2023-02-01T12:30:43;7.00;;;2.00;;
8893;SDS011;4483;48.622;9.230;2023-02-01T12:33:18;4.93;;;1.70;;
8893;SDS011;4483;48.622;9.230;2023-02-01T12:36:00;4.47;;;1.67;;
8893;SDS011;4483;48.622;9.230;2023-02-01T12:38:42;3.97;;;1.77;;
8893;SDS011;4483;48.622;9.230;2023-02-01T12:41:23;9.47;;;2.63;;
8893;SDS011;4483;48.622;9.230;2023-02-01T12:44:12;6.83;;;2.43;;
8893;SDS011;4483;48.622;9.230;2023-02-01T12:46:49;4.50;;;1.90;;
8893;SDS011;4483;48.622;9.230;2023-02-01T12:49:19;9.27;;;2.20;;
8893;SDS011;4483;48.622;9.230;2023-02-01T12:51:51;5.73;;;2.10;;
8893;SDS011;4483;48.622;9.230;2023-02-01T12:54:26;5.13;;;1.80;;
8893;SDS011;4483;48.622;9.230;2023-02-01T12:57:00;8.97;;;1.97;;
8893;SDS011;4483;48.622;9.230;2023-02-01T12:59:31;8.63;;;2.50;;
8893;SDS011;4483;48.622;9.230;2023-02-01T13:02:01;5.70;;;1.90;;
8893;SDS011;4483;48.622;9.230;2023-02-01T13:04:49;11.73;;;2.37;;
8893;SDS011;4483;48.622;9.230;2023-02-01T13:07:24;7.20;;;2.07;;
8893;SDS011;4483;48.622;9.230;2023-02-01T13:09:56;9.57;;;2.97;;
8893;SDS011;4483;48.622;9.230;2023-02-01T13:12:30;5.07;;;1.97;;
8893;SDS011;4483;48.622;9.230;2023-02-01T13:15:02;6.80;;;2.43;;
8893;SDS011;4483;48.622;9.230;2023-02-01T13:17:36;9.27;;;2.17;;
8893;SDS011;4483;48.622;9.230;2023-02-01T13:20:06;3.77;;;1.53;;
8893;SDS011;4483;48.622;9.230;2023-02-01T13:22:43;3.37;;;1.63;;
8893;SDS011;4483;48.622;9.230;2023-02-01T13:25:15;7.67;;;2.10;;
8893;SDS011;4483;48.622;9.230;2023-02-01T13:27:51;6.63;;;1.90;;
8893;SDS011;4483;48.622;9.230;2023-02-01T13:30:21;6.37;;;1.97;;
8893;SDS011;4483;48.622;9.230;2023-02-01T13:33:02;4.37;;;1.80;;
8893;SDS011;4483;48.622;9.230;2023-02-01T13:35:46;5.23;;;1.73;;
8893;SDS011;4483;48.622;9.230;2023-02-01T13:38:41;5.33;;;2.00;;
8893;SDS011;4483;48.622;9.230;2023-02-01T13:41:24;7.20;;;1.60;;
8893;SDS011;4483;48.622;9.230;2023-02-01T13:43:57;6.43;;;1.90;;
8893;SDS011;4483;48.622;9.230;2023-02-01T13:46:25;7.97;;;2.40;;
8893;SDS011;4483;48.622;9.230;2023-02-01T13:48:54;5.30;;;2.00;;
8893;SDS011;4483;48.622;9.230;2023-02-01T13:51:31;5.20;;;1.70;;
8893;SDS011;4483;48.622;9.230;2023-02-01T13:54:00;6.90;;;2.00;;
8893;SDS011;4483;48.622;9.230;2023-02-01T13:56:27;8.13;;;1.70;;
8893;SDS011;4483;48.622;9.230;2023-02-01T13:58:55;6.33;;;2.00;;
8893;SDS011;4483;48.622;9.230;2023-02-01T14:01:33;5.53;;;1.67;;
8893;SDS011;4483;48.622;9.230;2023-02-01T14:04:01;7.03;;;1.50;;
8893;SDS011;4483;48.622;9.230;2023-02-01T14:06:35;11.40;;;4.30;;
8893;SDS011;4483;48.622;9.230;2023-02-01T14:15:20;8.43;;;1.97;;
8893;SDS011;4483;48.622;9.230;2023-02-01T14:17:50;5.83;;;1.70;;
8893;SDS011;4483;48.622;9.230;2023-02-01T14:23:23;5.07;;;1.77;;
8893;SDS011;4483;48.622;9.230;2023-02-01T14:26:02;5.60;;;2.13;;
8893;SDS011;4483;48.622;9.230;2023-02-01T14:28:34;6.03;;;1.93;;
8893;SDS011;4483;48.622;9.230;2023-02-01T14:31:13;12.03;;;2.10;;
8893;SDS011;4483;48.622;9.230;2023-02-01T14:33:42;5.47;;;1.90;;
8893;SDS011;4483;48.622;9.230;2023-02-01T14:36:10;5.63;;;1.87;;
8893;SDS011;4483;48.622;9.230;2023-02-01T14:38:39;6.40;;;2.20;;
8893;SDS011;4483;48.622;9.230;2023-02-01T14:41:24;6.53;;;1.60;;
8893;SDS011;4483;48.622;9.230;2023-02-01T14:44:15;5.77;;;1.93;;
8893;SDS011;4483;48.622;9.230;2023-02-01T14:47:04;8.00;;;2.03;;
8893;SDS011;4483;48.622;9.230;2023-02-01T14:49:32;10.53;;;2.20;;
8893;SDS011;4483;48.622;9.230;2023-02-01T14:52:02;4.87;;;1.80;;
8893;SDS011;4483;48.622;9.230;2023-02-01T14:54:32;6.30;;;1.80;;
8893;SDS011;4483;48.622;9.230;2023-02-01T14:56:59;7.23;;;1.93;;
8893;SDS011;4483;48.622;9.230;2023-02-01T14:59:26;7.70;;;2.00;;
8893;SDS011;4483;48.622;9.230;2023-02-01T15:01:58;9.07;;;2.03;;
8893;SDS011;4483;48.622;9.230;2023-02-01T15:04:27;8.70;;;2.00;;
8893;SDS011;4483;48.622;9.230;2023-02-01T15:07:07;7.40;;;1.97;;
8893;SDS011;4483;48.622;9.230;2023-02-01T15:09:42;7.57;;;2.53;;
8893;SDS011;4483;48.622;9.230;2023-02-01T15:12:15;6.70;;;2.30;;
8893;SDS011;4483;48.622;9.230;2023-02-01T15:14:46;5.80;;;1.93;;
8893;SDS011;4483;48.622;9.230;2023-02-01T15:17:19;7.00;;;2.00;;
8893;SDS011;4483;48.622;9.230;2023-02-01T15:19:54;7.23;;;2.40;;
8893;SDS011;4483;48.622;9.230;2023-02-01T15:22:22;7.27;;;2.50;;
8893;SDS011;4483;48.622;9.230;2023-02-01T15:24:51;5.30;;;2.23;;
8893;SDS011;4483;48.622;9.230;2023-02-01T15:27:19;6.23;;;2.43;;
8893;SDS011;4483;48.622;9.230;2023-02-01T15:29:45;6.33;;;2.10;;
8893;SDS011;4483;48.622;9.230;2023-02-01T15:32:27;8.17;;;2.43;;
8893;SDS011;4483;48.622;9.230;2023-02-01T15:34:57;7.70;;;2.00;;
8893;SDS011;4483;48.622;9.230;2023-02-01T15:37:25;6.07;;;1.83;;
8893;SDS011;4483;48.622;9.230;2023-02-01T15:40:14;6.90;;;2.43;;
8893;SDS011;4483;48.622;9.230;2023-02-01T15:42:49;7.40;;;2.60;;
8893;SDS011;4483;48.622;9.230;2023-02-01T15:45:19;7.90;;;2.10;;
8893;SDS011;4483;48.622;9.230;2023-02-01T15:47:47;5.00;;;2.50;;
8893;SDS011;4483;48.622;9.230;2023-02-01T15:50:16;10.57;;;3.30;;
8893;SDS011;4483;48.622;9.230;2023-02-01T15:52:45;7.07;;;2.17;;
8893;SDS011;4483;48.622;9.230;2023-02-01T15:55:17;4.83;;;2.03;;
8893;SDS011;4483;48.622;9.230;2023-02-01T15:57:47;6.50;;;2.13;;
8893;SDS011;4483;48.622;9.230;2023-02-01T16:00:19;5.53;;;2.30;;
8893;SDS011;4483;48.622;9.230;2023-02-01T16:02:51;4.60;;;1.70;;